Sj Angel — DSRB5 — position and weather

sailwx.info

Track history (hours):
 
Tides and Currents Weather Stations Pressure Air Temp Water Temp Dewpoint Dewpoint Depression Visibility Wind Speed Wind Dir Waves Ship Positions

Sj Angel

Last reported at 2017-Oct-13 23:41 UTC. Time now 2017-Oct-17 16:48 UTC.
Position N 34°36' E 134°56'.

Length 80 m; draft 4.3 m.

Type: Cargo ship. MMSI: 440051000.

Date/timePositionNaut miles runAvg speedWind from/ knotsBaromVisibWave heightAir tempDewpointWater temp
2017-Oct-13 23:41N 34°36' E 134°56'2 8.1
2017-Oct-13 23:26N 34°37' E 134°58'3 7.1
2017-Oct-13 22:57N 34°36' E 135°03'3 7.8
2017-Oct-13 22:30N 34°34' E 135°05'5 9.7
2017-Oct-13 22:00N 34°29' E 135°03'5 9.6
2017-Oct-13 21:30N 34°24' E 135°02'6 9.4
2017-Oct-13 20:53N 34°19' E 134°60'4 9.2
2017-Oct-13 20:28N 34°15' E 134°59'5 9.5
2017-Oct-13 20:00N 34°11' E 134°59'5 9.9
2017-Oct-13 19:30N 34°06' E 134°59'222 7.8
2017-Oct-12 14:53N 34°53' E 139°23'3 6.8
2017-Oct-12 14:27N 34°55' E 139°25'3 6.9
2017-Oct-12 13:59N 34°57' E 139°29'3 7.3
2017-Oct-12 13:30N 34°59' E 139°32'4 8.2
2017-Oct-12 13:00N 35°02' E 139°36'4 8.3
2017-Oct-12 12:30N 35°04' E 139°40'4 8.2
2017-Oct-12 12:00N 35°07' E 139°43'4 8.7
2017-Oct-12 11:30N 35°11' E 139°46'4 9.0
2017-Oct-12 11:00N 35°16' E 139°46'5 9.8
2017-Oct-12 10:30N 35°20' E 139°43'5 9.1
2017-Oct-12 10:00N 35°24' E 139°43'5 9.5
2017-Oct-12 09:30N 35°27' E 139°47'5 9.4
2017-Oct-12 09:00N 35°30' E 139°52'8 9.2
2017-Oct-12 08:06N 35°36' E 139°58'1 0.0
2017-Oct-10 07:17N 35°36' E 139°59'0 0.0
2017-Oct-10 06:59N 35°36' E 139°59'16 0.5
2017-Oct-08 21:14N 35°24' E 139°46'2 9.1
2017-Oct-08 21:00N 35°22' E 139°45'4 8.7
2017-Oct-08 20:30N 35°18' E 139°45'5 9.3
2017-Oct-08 20:00N 35°13' E 139°47'4 9.0
2017-Oct-08 19:30N 35°09' E 139°46'4 8.5
2017-Oct-08 19:00N 35°05' E 139°43'4 8.5
2017-Oct-08 18:30N 35°03' E 139°39'4 8.3
2017-Oct-08 18:01N 35°00' E 139°35'5 9.1
2017-Oct-08 17:30N 34°57' E 139°30'  
2017-Oct-05 14:02N 34°06' E 134°59'110.1
2017-Oct-05 13:54N 34°07' E 134°59'410.0
2017-Oct-05 13:30N 34°11' E 134°59'12 8.1
2017-Oct-05 11:58N 34°23' E 135°01'4 8.7
2017-Oct-05 11:30N 34°27' E 135°02'4 8.1
2017-Oct-05 10:59N 34°31' E 135°03'3 7.2
2017-Oct-05 10:30N 34°35' E 135°04'3 5.1
2017-Oct-05 10:00N 34°37' E 135°02'2 4.4
2017-Oct-05 09:30N 34°37' E 134°59'  
Track history (hours):
 
Tides and Currents Weather Stations Pressure Air Temp Water Temp Dewpoint Dewpoint Depression Visibility Wind Speed Wind Dir Waves Ship Positions

Sj Angel

Last reported at 2017-Oct-13 23:41 UTC. Time now 2017-Oct-17 16:48 UTC.
Position N 34°36' E 134°56'.

Length 80 m; draft 4.3 m.

Type: Cargo ship. MMSI: 440051000.

Date/timePositionNaut miles runAvg speedWind from/ knotsBaromVisibWave heightAir tempDewpointWater temp
2017-Oct-13 23:41N 34°36' E 134°56'2 8.1
2017-Oct-13 23:26N 34°37' E 134°58'3 7.1
2017-Oct-13 22:57N 34°36' E 135°03'3 7.8
2017-Oct-13 22:30N 34°34' E 135°05'5 9.7
2017-Oct-13 22:00N 34°29' E 135°03'5 9.6
2017-Oct-13 21:30N 34°24' E 135°02'6 9.4
2017-Oct-13 20:53N 34°19' E 134°60'4 9.2
2017-Oct-13 20:28N 34°15' E 134°59'5 9.5
2017-Oct-13 20:00N 34°11' E 134°59'5 9.9
2017-Oct-13 19:30N 34°06' E 134°59'222 7.8
2017-Oct-12 14:53N 34°53' E 139°23'3 6.8
2017-Oct-12 14:27N 34°55' E 139°25'3 6.9
2017-Oct-12 13:59N 34°57' E 139°29'3 7.3
2017-Oct-12 13:30N 34°59' E 139°32'4 8.2
2017-Oct-12 13:00N 35°02' E 139°36'4 8.3
2017-Oct-12 12:30N 35°04' E 139°40'4 8.2
2017-Oct-12 12:00N 35°07' E 139°43'4 8.7
2017-Oct-12 11:30N 35°11' E 139°46'4 9.0
2017-Oct-12 11:00N 35°16' E 139°46'5 9.8
2017-Oct-12 10:30N 35°20' E 139°43'5 9.1
2017-Oct-12 10:00N 35°24' E 139°43'5 9.5
2017-Oct-12 09:30N 35°27' E 139°47'5 9.4
2017-Oct-12 09:00N 35°30' E 139°52'8 9.2
2017-Oct-12 08:06N 35°36' E 139°58'1 0.0
2017-Oct-10 07:17N 35°36' E 139°59'0 0.0
2017-Oct-10 06:59N 35°36' E 139°59'16 0.5
2017-Oct-08 21:14N 35°24' E 139°46'2 9.1
2017-Oct-08 21:00N 35°22' E 139°45'4 8.7
2017-Oct-08 20:30N 35°18' E 139°45'5 9.3
2017-Oct-08 20:00N 35°13' E 139°47'4 9.0
2017-Oct-08 19:30N 35°09' E 139°46'4 8.5
2017-Oct-08 19:00N 35°05' E 139°43'4 8.5
2017-Oct-08 18:30N 35°03' E 139°39'4 8.3
2017-Oct-08 18:01N 35°00' E 139°35'5 9.1
2017-Oct-08 17:30N 34°57' E 139°30'  
2017-Oct-05 14:02N 34°06' E 134°59'110.1
2017-Oct-05 13:54N 34°07' E 134°59'410.0
2017-Oct-05 13:30N 34°11' E 134°59'12 8.1
2017-Oct-05 11:58N 34°23' E 135°01'4 8.7
2017-Oct-05 11:30N 34°27' E 135°02'4 8.1
2017-Oct-05 10:59N 34°31' E 135°03'3 7.2
2017-Oct-05 10:30N 34°35' E 135°04'3 5.1
2017-Oct-05 10:00N 34°37' E 135°02'2 4.4
2017-Oct-05 09:30N 34°37' E 134°59'  

Dump ship's entire track history